sensor_id;sensor_type;location;lat;lon;timestamp;pressure;altitude;pressure_sealevel;temperature;humidity
14120;BME280;7138;49.246;9.100;2022-08-19T00:02:22;98208.97;;;23.95;79.24
14120;BME280;7138;49.246;9.100;2022-08-19T00:04:48;98216.06;;;23.95;79.13
14120;BME280;7138;49.246;9.100;2022-08-19T00:07:21;98209.28;;;23.91;79.39
14120;BME280;7138;49.246;9.100;2022-08-19T00:09:47;98210.97;;;23.78;80.01
14120;BME280;7138;49.246;9.100;2022-08-19T00:12:13;98198.34;;;23.83;79.66
14120;BME280;7138;49.246;9.100;2022-08-19T00:14:39;98197.50;;;23.82;79.78
14120;BME280;7138;49.246;9.100;2022-08-19T00:17:09;98203.34;;;23.87;79.73
14120;BME280;7138;49.246;9.100;2022-08-19T00:19:36;98207.56;;;23.90;79.74
14120;BME280;7138;49.246;9.100;2022-08-19T00:22:03;98202.88;;;23.95;79.22
14120;BME280;7138;49.246;9.100;2022-08-19T00:24:31;98214.84;;;24.01;79.68
14120;BME280;7138;49.246;9.100;2022-08-19T00:26:58;98209.38;;;24.04;79.11
14120;BME280;7138;49.246;9.100;2022-08-19T00:29:25;98204.81;;;24.06;78.85
14120;BME280;7138;49.246;9.100;2022-08-19T00:31:51;98196.72;;;23.94;78.98
14120;BME280;7138;49.246;9.100;2022-08-19T00:34:23;98201.03;;;23.95;79.46
14120;BME280;7138;49.246;9.100;2022-08-19T00:36:50;98203.69;;;23.95;79.33
14120;BME280;7138;49.246;9.100;2022-08-19T00:39:17;98213.81;;;23.89;79.42
14120;BME280;7138;49.246;9.100;2022-08-19T00:41:44;98209.28;;;23.91;79.43
14120;BME280;7138;49.246;9.100;2022-08-19T00:44:16;98209.34;;;23.89;79.47
14120;BME280;7138;49.246;9.100;2022-08-19T00:46:46;98203.63;;;23.83;79.42
14120;BME280;7138;49.246;9.100;2022-08-19T00:49:17;98204.84;;;23.77;79.72
14120;BME280;7138;49.246;9.100;2022-08-19T00:51:51;98197.66;;;23.65;80.25
14120;BME280;7138;49.246;9.100;2022-08-19T00:54:19;98215.97;;;23.68;80.14
14120;BME280;7138;49.246;9.100;2022-08-19T00:56:46;98200.31;;;23.65;80.46
14120;BME280;7138;49.246;9.100;2022-08-19T00:59:13;98183.06;;;23.60;80.58
14120;BME280;7138;49.246;9.100;2022-08-19T01:01:43;98183.84;;;23.62;80.55
14120;BME280;7138;49.246;9.100;2022-08-19T01:04:10;98164.38;;;23.63;80.52
14120;BME280;7138;49.246;9.100;2022-08-19T01:06:38;98161.19;;;23.58;80.86
14120;BME280;7138;49.246;9.100;2022-08-19T01:09:08;98164.75;;;23.57;80.97
14120;BME280;7138;49.246;9.100;2022-08-19T01:11:38;98180.72;;;23.55;81.41
14120;BME280;7138;49.246;9.100;2022-08-19T01:14:08;98186.56;;;23.60;80.95
14120;BME280;7138;49.246;9.100;2022-08-19T01:16:35;98198.81;;;23.61;81.15
14120;BME280;7138;49.246;9.100;2022-08-19T01:19:10;98197.84;;;23.62;80.98
14120;BME280;7138;49.246;9.100;2022-08-19T01:21:44;98203.25;;;23.61;81.24
14120;BME280;7138;49.246;9.100;2022-08-19T01:24:15;98210.88;;;23.65;81.09
14120;BME280;7138;49.246;9.100;2022-08-19T01:26:45;98208.81;;;23.70;80.89
14120;BME280;7138;49.246;9.100;2022-08-19T01:29:12;98208.63;;;23.73;80.66
14120;BME280;7138;49.246;9.100;2022-08-19T01:31:38;98207.41;;;23.79;80.67
14120;BME280;7138;49.246;9.100;2022-08-19T01:34:05;98202.97;;;23.79;80.65
14120;BME280;7138;49.246;9.100;2022-08-19T01:36:36;98202.00;;;23.80;80.55
14120;BME280;7138;49.246;9.100;2022-08-19T01:39:07;98203.72;;;23.81;80.54
14120;BME280;7138;49.246;9.100;2022-08-19T01:41:36;98202.97;;;23.79;80.72
14120;BME280;7138;49.246;9.100;2022-08-19T01:44:03;98202.50;;;23.73;80.97
14120;BME280;7138;49.246;9.100;2022-08-19T01:46:30;98204.97;;;23.62;81.27
14120;BME280;7138;49.246;9.100;2022-08-19T01:48:56;98205.78;;;23.62;81.40
14120;BME280;7138;49.246;9.100;2022-08-19T01:51:22;98212.03;;;23.61;81.52
14120;BME280;7138;49.246;9.100;2022-08-19T01:53:49;98206.94;;;23.58;81.47
14120;BME280;7138;49.246;9.100;2022-08-19T01:56:15;98208.41;;;23.48;81.81
14120;BME280;7138;49.246;9.100;2022-08-19T01:58:48;98212.63;;;23.36;82.47
14120;BME280;7138;49.246;9.100;2022-08-19T02:01:16;98212.47;;;23.39;82.36
14120;BME280;7138;49.246;9.100;2022-08-19T02:03:42;98213.56;;;23.35;82.45
14120;BME280;7138;49.246;9.100;2022-08-19T02:06:09;98207.22;;;23.38;82.29
14120;BME280;7138;49.246;9.100;2022-08-19T02:08:37;98199.03;;;23.28;82.84
14120;BME280;7138;49.246;9.100;2022-08-19T02:11:05;98203.28;;;23.31;82.86
14120;BME280;7138;49.246;9.100;2022-08-19T02:13:32;98201.41;;;23.33;82.58
14120;BME280;7138;49.246;9.100;2022-08-19T02:15:59;98198.56;;;23.22;82.94
14120;BME280;7138;49.246;9.100;2022-08-19T02:18:26;98200.78;;;23.14;82.88
14120;BME280;7138;49.246;9.100;2022-08-19T02:20:52;98211.16;;;23.17;83.08
14120;BME280;7138;49.246;9.100;2022-08-19T02:23:18;98210.47;;;23.13;83.32
14120;BME280;7138;49.246;9.100;2022-08-19T02:25:47;98212.19;;;23.14;83.54
14120;BME280;7138;49.246;9.100;2022-08-19T02:28:13;98203.88;;;23.06;83.59
14120;BME280;7138;49.246;9.100;2022-08-19T02:30:41;98212.22;;;22.99;83.82
14120;BME280;7138;49.246;9.100;2022-08-19T02:33:09;98216.41;;;23.03;83.97
14120;BME280;7138;49.246;9.100;2022-08-19T02:35:34;98205.09;;;23.01;84.10
14120;BME280;7138;49.246;9.100;2022-08-19T02:38:00;98208.75;;;22.98;83.87
14120;BME280;7138;49.246;9.100;2022-08-19T02:40:49;98209.22;;;22.91;84.34
14120;BME280;7138;49.246;9.100;2022-08-19T02:43:18;98213.22;;;22.82;84.69
14120;BME280;7138;49.246;9.100;2022-08-19T02:45:46;98204.78;;;22.91;84.35
14120;BME280;7138;49.246;9.100;2022-08-19T02:48:16;98207.81;;;22.99;84.02
14120;BME280;7138;49.246;9.100;2022-08-19T02:50:43;98207.91;;;22.98;83.95
14120;BME280;7138;49.246;9.100;2022-08-19T02:53:10;98206.97;;;22.99;83.94
14120;BME280;7138;49.246;9.100;2022-08-19T02:55:36;98197.38;;;22.98;84.08
14120;BME280;7138;49.246;9.100;2022-08-19T02:58:07;98194.81;;;22.96;83.99
14120;BME280;7138;49.246;9.100;2022-08-19T03:00:33;98199.22;;;22.96;84.06
14120;BME280;7138;49.246;9.100;2022-08-19T03:02:59;98204.69;;;22.93;84.09
14120;BME280;7138;49.246;9.100;2022-08-19T03:05:27;98201.28;;;22.91;84.18
14120;BME280;7138;49.246;9.100;2022-08-19T03:07:53;98206.56;;;22.91;84.47
14120;BME280;7138;49.246;9.100;2022-08-19T03:10:19;98196.38;;;22.84;84.01
14120;BME280;7138;49.246;9.100;2022-08-19T03:12:45;98209.81;;;22.80;84.61
14120;BME280;7138;49.246;9.100;2022-08-19T03:15:12;98199.53;;;22.75;84.49
14120;BME280;7138;49.246;9.100;2022-08-19T03:17:38;98202.38;;;22.72;84.72
14120;BME280;7138;49.246;9.100;2022-08-19T03:20:05;98196.66;;;22.64;85.12
14120;BME280;7138;49.246;9.100;2022-08-19T03:22:33;98195.38;;;22.71;84.61
14120;BME280;7138;49.246;9.100;2022-08-19T03:24:59;98205.34;;;22.66;84.65
14120;BME280;7138;49.246;9.100;2022-08-19T03:27:24;98207.97;;;22.66;84.79
14120;BME280;7138;49.246;9.100;2022-08-19T03:29:51;98204.56;;;22.64;85.08
14120;BME280;7138;49.246;9.100;2022-08-19T03:32:20;98211.63;;;22.64;85.14
14120;BME280;7138;49.246;9.100;2022-08-19T03:34:48;98213.25;;;22.66;85.11
14120;BME280;7138;49.246;9.100;2022-08-19T03:37:14;98215.78;;;22.68;84.76
14120;BME280;7138;49.246;9.100;2022-08-19T03:39:42;98221.75;;;22.71;84.76
14120;BME280;7138;49.246;9.100;2022-08-19T03:42:11;98230.44;;;22.73;84.33
14120;BME280;7138;49.246;9.100;2022-08-19T03:44:37;98239.09;;;22.75;84.15
14120;BME280;7138;49.246;9.100;2022-08-19T03:47:04;98235.34;;;22.79;84.26
14120;BME280;7138;49.246;9.100;2022-08-19T03:49:32;98230.91;;;22.80;84.03
14120;BME280;7138;49.246;9.100;2022-08-19T03:52:01;98227.28;;;22.82;84.24
14120;BME280;7138;49.246;9.100;2022-08-19T03:54:28;98231.41;;;22.86;83.88
14120;BME280;7138;49.246;9.100;2022-08-19T03:56:56;98229.38;;;22.92;83.90
14120;BME280;7138;49.246;9.100;2022-08-19T03:59:26;98214.66;;;22.88;83.91
14120;BME280;7138;49.246;9.100;2022-08-19T04:01:53;98217.25;;;22.73;84.17
14120;BME280;7138;49.246;9.100;2022-08-19T04:04:19;98215.78;;;22.68;84.61
14120;BME280;7138;49.246;9.100;2022-08-19T04:06:44;98210.34;;;22.71;84.91
14120;BME280;7138;49.246;9.100;2022-08-19T04:09:13;98202.78;;;22.65;84.81
14120;BME280;7138;49.246;9.100;2022-08-19T04:11:43;98202.53;;;22.69;84.53
14120;BME280;7138;49.246;9.100;2022-08-19T04:14:14;98202.53;;;22.69;84.75
14120;BME280;7138;49.246;9.100;2022-08-19T04:16:42;98206.94;;;22.69;84.42
14120;BME280;7138;49.246;9.100;2022-08-19T04:19:10;98208.56;;;22.71;84.53
14120;BME280;7138;49.246;9.100;2022-08-19T04:21:36;98219.78;;;22.75;84.41
14120;BME280;7138;49.246;9.100;2022-08-19T04:24:03;98222.53;;;22.73;84.43
14120;BME280;7138;49.246;9.100;2022-08-19T04:26:34;98215.44;;;22.74;84.27
14120;BME280;7138;49.246;9.100;2022-08-19T04:29:03;98220.72;;;22.74;84.33
14120;BME280;7138;49.246;9.100;2022-08-19T04:31:32;98223.44;;;22.72;84.55
14120;BME280;7138;49.246;9.100;2022-08-19T04:34:06;98224.19;;;22.74;84.20
14120;BME280;7138;49.246;9.100;2022-08-19T04:36:35;98221.66;;;22.73;83.99
14120;BME280;7138;49.246;9.100;2022-08-19T04:39:08;98222.09;;;22.65;84.98
14120;BME280;7138;49.246;9.100;2022-08-19T04:41:34;98219.78;;;22.59;84.71
14120;BME280;7138;49.246;9.100;2022-08-19T04:44:19;98219.53;;;22.64;84.83
14120;BME280;7138;49.246;9.100;2022-08-19T04:46:47;98223.81;;;22.66;84.82
14120;BME280;7138;49.246;9.100;2022-08-19T04:49:15;98221.91;;;22.68;84.68
14120;BME280;7138;49.246;9.100;2022-08-19T04:51:46;98216.88;;;22.64;85.28
14120;BME280;7138;49.246;9.100;2022-08-19T04:54:17;98216.81;;;22.65;85.15
14120;BME280;7138;49.246;9.100;2022-08-19T04:56:43;98218.53;;;22.66;84.92
14120;BME280;7138;49.246;9.100;2022-08-19T04:59:09;98218.66;;;22.63;84.98
14120;BME280;7138;49.246;9.100;2022-08-19T05:01:36;98226.50;;;22.65;85.02
14120;BME280;7138;49.246;9.100;2022-08-19T05:04:06;98226.44;;;22.66;85.25
14120;BME280;7138;49.246;9.100;2022-08-19T05:06:33;98227.97;;;22.55;85.56
14120;BME280;7138;49.246;9.100;2022-08-19T05:09:00;98237.47;;;22.57;85.08
14120;BME280;7138;49.246;9.100;2022-08-19T05:11:30;98232.38;;;22.54;85.79
14120;BME280;7138;49.246;9.100;2022-08-19T05:13:57;98236.97;;;22.51;85.57
14120;BME280;7138;49.246;9.100;2022-08-19T05:16:25;98242.34;;;22.49;85.94
14120;BME280;7138;49.246;9.100;2022-08-19T05:18:52;98237.22;;;22.46;85.91
14120;BME280;7138;49.246;9.100;2022-08-19T05:21:40;98244.88;;;22.35;86.24
14120;BME280;7138;49.246;9.100;2022-08-19T05:24:25;98246.34;;;22.25;86.95
14120;BME280;7138;49.246;9.100;2022-08-19T05:26:54;98247.44;;;22.37;86.55
14120;BME280;7138;49.246;9.100;2022-08-19T05:29:24;98249.44;;;22.47;86.48
14120;BME280;7138;49.246;9.100;2022-08-19T05:31:52;98244.78;;;22.52;86.63
14120;BME280;7138;49.246;9.100;2022-08-19T05:34:20;98247.91;;;22.59;86.47
14120;BME280;7138;49.246;9.100;2022-08-19T05:36:50;98261.38;;;22.70;85.90
14120;BME280;7138;49.246;9.100;2022-08-19T05:39:20;98267.75;;;22.66;85.68
14120;BME280;7138;49.246;9.100;2022-08-19T05:41:50;98268.34;;;22.71;85.87
14120;BME280;7138;49.246;9.100;2022-08-19T05:44:17;98276.34;;;22.69;85.78
14120;BME280;7138;49.246;9.100;2022-08-19T05:46:44;98276.94;;;22.74;85.69
14120;BME280;7138;49.246;9.100;2022-08-19T05:49:14;98284.50;;;22.80;85.42
14120;BME280;7138;49.246;9.100;2022-08-19T05:51:41;98282.81;;;22.79;85.60
14120;BME280;7138;49.246;9.100;2022-08-19T05:54:09;98290.97;;;22.75;85.35
14120;BME280;7138;49.246;9.100;2022-08-19T05:56:37;98297.34;;;22.86;85.51
14120;BME280;7138;49.246;9.100;2022-08-19T05:59:04;98285.69;;;22.75;85.27
14120;BME280;7138;49.246;9.100;2022-08-19T06:01:35;98303.22;;;22.92;85.27
14120;BME280;7138;49.246;9.100;2022-08-19T06:04:01;98302.00;;;22.97;85.11
14120;BME280;7138;49.246;9.100;2022-08-19T06:06:26;98308.63;;;23.04;85.09
14120;BME280;7138;49.246;9.100;2022-08-19T06:08:52;98309.91;;;23.13;84.76
14120;BME280;7138;49.246;9.100;2022-08-19T06:11:24;98311.16;;;23.21;85.00
14120;BME280;7138;49.246;9.100;2022-08-19T06:14:01;98319.56;;;23.28;84.61
14120;BME280;7138;49.246;9.100;2022-08-19T06:16:28;98324.84;;;23.28;84.46
14120;BME280;7138;49.246;9.100;2022-08-19T06:19:01;98331.63;;;23.32;84.17
14120;BME280;7138;49.246;9.100;2022-08-19T06:21:28;98329.44;;;23.40;84.02
14120;BME280;7138;49.246;9.100;2022-08-19T06:23:57;98324.00;;;23.43;84.07
14120;BME280;7138;49.246;9.100;2022-08-19T06:26:25;98335.88;;;23.50;83.95
14120;BME280;7138;49.246;9.100;2022-08-19T06:28:52;98301.84;;;23.46;83.76
14120;BME280;7138;49.246;9.100;2022-08-19T06:31:21;98326.00;;;23.54;83.63
14120;BME280;7138;49.246;9.100;2022-08-19T06:33:49;98329.94;;;23.47;83.82
14120;BME280;7138;49.246;9.100;2022-08-19T06:36:21;98328.72;;;23.52;83.81
14120;BME280;7138;49.246;9.100;2022-08-19T06:38:47;98323.09;;;23.58;83.66
14120;BME280;7138;49.246;9.100;2022-08-19T06:41:13;98329.31;;;23.57;83.84
14120;BME280;7138;49.246;9.100;2022-08-19T06:43:41;98336.19;;;23.60;83.68
14120;BME280;7138;49.246;9.100;2022-08-19T06:46:14;98327.34;;;23.61;83.96
14120;BME280;7138;49.246;9.100;2022-08-19T06:48:41;98327.22;;;23.62;83.70
14120;BME280;7138;49.246;9.100;2022-08-19T06:51:07;98326.97;;;23.67;83.58
14120;BME280;7138;49.246;9.100;2022-08-19T06:53:34;98338.56;;;23.64;83.76
14120;BME280;7138;49.246;9.100;2022-08-19T06:56:00;98336.44;;;23.71;83.73
14120;BME280;7138;49.246;9.100;2022-08-19T06:58:29;98350.16;;;23.62;84.01
14120;BME280;7138;49.246;9.100;2022-08-19T07:01:00;98343.25;;;23.59;84.20
14120;BME280;7138;49.246;9.100;2022-08-19T07:03:28;98341.09;;;23.66;84.27
14120;BME280;7138;49.246;9.100;2022-08-19T07:05:54;98340.00;;;23.70;84.07
14120;BME280;7138;49.246;9.100;2022-08-19T07:08:20;98337.72;;;23.78;84.38
14120;BME280;7138;49.246;9.100;2022-08-19T07:10:46;98335.03;;;23.79;84.10
14120;BME280;7138;49.246;9.100;2022-08-19T07:13:13;98332.38;;;23.79;84.25
14120;BME280;7138;49.246;9.100;2022-08-19T07:15:40;98337.84;;;23.90;84.31
14120;BME280;7138;49.246;9.100;2022-08-19T07:18:07;98337.13;;;24.03;84.30
14120;BME280;7138;49.246;9.100;2022-08-19T07:20:33;98343.59;;;24.13;83.79
14120;BME280;7138;49.246;9.100;2022-08-19T07:22:59;98340.06;;;24.26;83.34
14120;BME280;7138;49.246;9.100;2022-08-19T07:25:24;98347.44;;;24.35;82.43
14120;BME280;7138;49.246;9.100;2022-08-19T07:27:50;98348.03;;;24.40;82.99
14120;BME280;7138;49.246;9.100;2022-08-19T07:30:16;98337.13;;;24.45;83.04
14120;BME280;7138;49.246;9.100;2022-08-19T07:32:42;98341.31;;;24.49;82.85
14120;BME280;7138;49.246;9.100;2022-08-19T07:35:10;98342.63;;;24.56;82.59
14120;BME280;7138;49.246;9.100;2022-08-19T07:37:36;98335.53;;;24.57;81.89
14120;BME280;7138;49.246;9.100;2022-08-19T07:40:05;98345.72;;;24.63;82.36
14120;BME280;7138;49.246;9.100;2022-08-19T07:42:31;98345.50;;;24.66;82.78
14120;BME280;7138;49.246;9.100;2022-08-19T07:44:58;98345.91;;;24.74;81.79
14120;BME280;7138;49.246;9.100;2022-08-19T07:47:24;98346.09;;;24.85;81.80
14120;BME280;7138;49.246;9.100;2022-08-19T07:49:49;98343.91;;;24.91;81.91
14120;BME280;7138;49.246;9.100;2022-08-19T07:52:17;98355.41;;;25.05;81.97
14120;BME280;7138;49.246;9.100;2022-08-19T07:54:43;98347.41;;;25.19;81.06
14120;BME280;7138;49.246;9.100;2022-08-19T07:57:09;98357.84;;;25.34;81.17
14120;BME280;7138;49.246;9.100;2022-08-19T07:59:35;98342.78;;;25.49;80.16
14120;BME280;7138;49.246;9.100;2022-08-19T08:02:03;98347.25;;;25.34;80.54
14120;BME280;7138;49.246;9.100;2022-08-19T08:04:30;98351.78;;;25.32;80.26
14120;BME280;7138;49.246;9.100;2022-08-19T08:07:16;98334.66;;;25.11;80.62
14120;BME280;7138;49.246;9.100;2022-08-19T08:10:05;98355.88;;;25.24;80.63
14120;BME280;7138;49.246;9.100;2022-08-19T08:12:35;98350.38;;;25.27;81.27
14120;BME280;7138;49.246;9.100;2022-08-19T08:15:11;98358.28;;;25.41;81.28
14120;BME280;7138;49.246;9.100;2022-08-19T08:17:39;98354.53;;;25.58;80.42
14120;BME280;7138;49.246;9.100;2022-08-19T08:20:06;98362.53;;;25.70;79.19
14120;BME280;7138;49.246;9.100;2022-08-19T08:22:34;98366.47;;;25.77;79.92
14120;BME280;7138;49.246;9.100;2022-08-19T08:25:22;98360.50;;;25.74;80.22
14120;BME280;7138;49.246;9.100;2022-08-19T08:27:49;98356.41;;;25.82;80.18
14120;BME280;7138;49.246;9.100;2022-08-19T08:30:19;98359.28;;;25.92;78.53
14120;BME280;7138;49.246;9.100;2022-08-19T08:32:46;98364.56;;;25.79;78.66
14120;BME280;7138;49.246;9.100;2022-08-19T08:35:14;98370.06;;;25.76;79.61
14120;BME280;7138;49.246;9.100;2022-08-19T08:37:44;98382.25;;;25.79;79.90
14120;BME280;7138;49.246;9.100;2022-08-19T08:40:21;98381.31;;;25.92;79.56
14120;BME280;7138;49.246;9.100;2022-08-19T08:42:55;98380.69;;;26.01;78.91
14120;BME280;7138;49.246;9.100;2022-08-19T08:45:28;98381.56;;;26.02;78.53
14120;BME280;7138;49.246;9.100;2022-08-19T08:47:57;98378.56;;;26.06;78.70
14120;BME280;7138;49.246;9.100;2022-08-19T08:50:34;98374.66;;;26.12;79.20
14120;BME280;7138;49.246;9.100;2022-08-19T08:53:07;98363.94;;;26.14;78.59
14120;BME280;7138;49.246;9.100;2022-08-19T08:55:34;98367.88;;;26.21;78.45
14120;BME280;7138;49.246;9.100;2022-08-19T08:58:05;98378.50;;;26.21;77.78
14120;BME280;7138;49.246;9.100;2022-08-19T09:00:35;98360.78;;;26.21;77.97
14120;BME280;7138;49.246;9.100;2022-08-19T09:03:03;98370.31;;;26.24;77.52
14120;BME280;7138;49.246;9.100;2022-08-19T09:05:42;98361.31;;;26.14;77.51
14120;BME280;7138;49.246;9.100;2022-08-19T09:08:25;98364.16;;;26.11;77.48
14120;BME280;7138;49.246;9.100;2022-08-19T09:10:55;98361.81;;;26.06;77.74
14120;BME280;7138;49.246;9.100;2022-08-19T09:13:35;98357.38;;;26.06;77.05
14120;BME280;7138;49.246;9.100;2022-08-19T09:16:10;98356.28;;;25.96;77.34
14120;BME280;7138;49.246;9.100;2022-08-19T09:18:43;98355.13;;;26.00;77.68
14120;BME280;7138;49.246;9.100;2022-08-19T09:21:12;98354.41;;;25.98;77.28
14120;BME280;7138;49.246;9.100;2022-08-19T09:23:40;98354.28;;;26.13;77.55
14120;BME280;7138;49.246;9.100;2022-08-19T09:26:12;98359.13;;;26.20;76.50
14120;BME280;7138;49.246;9.100;2022-08-19T09:28:39;98364.09;;;26.25;77.00
14120;BME280;7138;49.246;9.100;2022-08-19T09:31:09;98361.00;;;26.18;75.86
14120;BME280;7138;49.246;9.100;2022-08-19T09:33:35;98357.84;;;26.26;75.15
14120;BME280;7138;49.246;9.100;2022-08-19T09:36:06;98357.84;;;26.26;72.78
14120;BME280;7138;49.246;9.100;2022-08-19T09:38:33;98353.91;;;26.31;74.15
14120;BME280;7138;49.246;9.100;2022-08-19T09:41:04;98360.56;;;26.37;73.99
14120;BME280;7138;49.246;9.100;2022-08-19T09:43:30;98364.38;;;26.45;73.23
14120;BME280;7138;49.246;9.100;2022-08-19T09:45:56;98363.66;;;26.43;74.02
14120;BME280;7138;49.246;9.100;2022-08-19T09:48:22;98364.06;;;26.37;72.88
14120;BME280;7138;49.246;9.100;2022-08-19T09:50:48;98365.88;;;26.49;72.95
14120;BME280;7138;49.246;9.100;2022-08-19T09:53:16;98361.72;;;26.58;72.48
14120;BME280;7138;49.246;9.100;2022-08-19T09:55:42;98360.13;;;26.68;72.38
14120;BME280;7138;49.246;9.100;2022-08-19T09:58:10;98367.84;;;26.71;72.45
14120;BME280;7138;49.246;9.100;2022-08-19T10:00:37;98362.84;;;26.79;72.45
14120;BME280;7138;49.246;9.100;2022-08-19T10:03:03;98368.44;;;27.00;72.33
14120;BME280;7138;49.246;9.100;2022-08-19T10:05:29;98362.41;;;27.22;72.22
14120;BME280;7138;49.246;9.100;2022-08-19T10:08:15;98362.56;;;27.44;70.54
14120;BME280;7138;49.246;9.100;2022-08-19T10:10:42;98367.66;;;27.58;69.80
14120;BME280;7138;49.246;9.100;2022-08-19T10:13:15;98366.53;;;27.73;68.56
14120;BME280;7138;49.246;9.100;2022-08-19T10:15:41;98366.56;;;27.84;68.79
14120;BME280;7138;49.246;9.100;2022-08-19T10:18:08;98363.47;;;28.01;68.91
14120;BME280;7138;49.246;9.100;2022-08-19T10:20:34;98370.03;;;28.08;67.63
14120;BME280;7138;49.246;9.100;2022-08-19T10:23:01;98364.50;;;28.11;68.57
14120;BME280;7138;49.246;9.100;2022-08-19T10:25:27;98370.28;;;28.05;67.86
14120;BME280;7138;49.246;9.100;2022-08-19T10:27:53;98368.09;;;28.10;68.40
14120;BME280;7138;49.246;9.100;2022-08-19T10:30:20;98359.91;;;28.25;68.38
14120;BME280;7138;49.246;9.100;2022-08-19T10:32:46;98360.75;;;28.36;66.91
14120;BME280;7138;49.246;9.100;2022-08-19T10:35:13;98362.94;;;28.31;65.21
14120;BME280;7138;49.246;9.100;2022-08-19T10:37:40;98350.09;;;28.36;66.28
14120;BME280;7138;49.246;9.100;2022-08-19T10:40:08;98346.38;;;28.39;65.82
14120;BME280;7138;49.246;9.100;2022-08-19T10:42:36;98338.75;;;28.34;65.75
14120;BME280;7138;49.246;9.100;2022-08-19T10:45:03;98340.44;;;28.46;66.50
14120;BME280;7138;49.246;9.100;2022-08-19T10:47:33;98338.38;;;28.50;66.03
14120;BME280;7138;49.246;9.100;2022-08-19T10:49:58;98341.28;;;28.58;65.54
14120;BME280;7138;49.246;9.100;2022-08-19T10:52:47;98338.63;;;28.47;65.53
14120;BME280;7138;49.246;9.100;2022-08-19T10:55:13;98337.28;;;28.52;65.92
14120;BME280;7138;49.246;9.100;2022-08-19T10:57:58;98343.13;;;28.68;65.26
14120;BME280;7138;49.246;9.100;2022-08-19T11:00:25;98337.09;;;28.66;65.32
14120;BME280;7138;49.246;9.100;2022-08-19T11:02:52;98327.75;;;28.83;65.57
14120;BME280;7138;49.246;9.100;2022-08-19T11:05:19;98324.19;;;29.05;65.96
14120;BME280;7138;49.246;9.100;2022-08-19T11:07:45;98315.94;;;29.08;64.56
14120;BME280;7138;49.246;9.100;2022-08-19T11:10:13;98308.91;;;29.07;65.32
14120;BME280;7138;49.246;9.100;2022-08-19T11:12:40;98321.22;;;29.30;64.55
14120;BME280;7138;49.246;9.100;2022-08-19T11:15:09;98319.09;;;29.45;63.77
14120;BME280;7138;49.246;9.100;2022-08-19T11:17:37;98318.25;;;29.44;62.87
14120;BME280;7138;49.246;9.100;2022-08-19T11:20:09;98310.38;;;29.43;62.68
14120;BME280;7138;49.246;9.100;2022-08-19T11:22:35;98304.34;;;29.41;62.91
14120;BME280;7138;49.246;9.100;2022-08-19T11:25:01;98313.63;;;29.46;63.67
14120;BME280;7138;49.246;9.100;2022-08-19T11:27:28;98314.28;;;29.39;62.29
14120;BME280;7138;49.246;9.100;2022-08-19T11:29:54;98315.69;;;29.43;61.36
14120;BME280;7138;49.246;9.100;2022-08-19T11:32:20;98316.16;;;29.27;61.12
14120;BME280;7138;49.246;9.100;2022-08-19T11:34:46;98317.03;;;29.05;61.20
14120;BME280;7138;49.246;9.100;2022-08-19T11:37:13;98317.28;;;29.02;61.29
14120;BME280;7138;49.246;9.100;2022-08-19T11:39:39;98317.66;;;28.98;61.52
14120;BME280;7138;49.246;9.100;2022-08-19T11:42:06;98312.06;;;29.01;62.21
14120;BME280;7138;49.246;9.100;2022-08-19T11:44:51;98313.38;;;29.17;62.46
14120;BME280;7138;49.246;9.100;2022-08-19T11:47:20;98301.84;;;29.28;61.48
14120;BME280;7138;49.246;9.100;2022-08-19T11:49:47;98294.84;;;29.27;61.90
14120;BME280;7138;49.246;9.100;2022-08-19T11:52:14;98300.22;;;29.37;61.79
14120;BME280;7138;49.246;9.100;2022-08-19T11:54:40;98309.91;;;29.38;61.23
14120;BME280;7138;49.246;9.100;2022-08-19T11:57:06;98306.41;;;29.37;61.82
14120;BME280;7138;49.246;9.100;2022-08-19T11:59:32;98313.03;;;29.43;61.07
14120;BME280;7138;49.246;9.100;2022-08-19T12:01:58;98298.63;;;29.45;61.16
14120;BME280;7138;49.246;9.100;2022-08-19T12:04:24;98305.28;;;29.51;60.86
14120;BME280;7138;49.246;9.100;2022-08-19T12:06:50;98304.75;;;29.57;60.49
14120;BME280;7138;49.246;9.100;2022-08-19T12:09:17;98310.19;;;29.55;60.85
14120;BME280;7138;49.246;9.100;2022-08-19T12:11:44;98313.72;;;29.56;60.67
14120;BME280;7138;49.246;9.100;2022-08-19T12:14:12;98318.75;;;29.38;61.57
14120;BME280;7138;49.246;9.100;2022-08-19T12:16:40;98323.16;;;29.28;61.58
14120;BME280;7138;49.246;9.100;2022-08-19T12:19:07;98316.00;;;29.28;62.73
14120;BME280;7138;49.246;9.100;2022-08-19T12:21:35;98310.84;;;29.27;61.97
14120;BME280;7138;49.246;9.100;2022-08-19T12:24:04;98318.44;;;29.32;62.30
14120;BME280;7138;49.246;9.100;2022-08-19T12:26:31;98315.06;;;29.30;61.14
14120;BME280;7138;49.246;9.100;2022-08-19T12:28:58;98317.22;;;29.24;61.63
14120;BME280;7138;49.246;9.100;2022-08-19T12:31:25;98318.06;;;29.36;62.99
14120;BME280;7138;49.246;9.100;2022-08-19T12:33:51;98319.69;;;29.48;62.99
14120;BME280;7138;49.246;9.100;2022-08-19T12:36:18;98308.63;;;29.53;61.02
14120;BME280;7138;49.246;9.100;2022-08-19T12:38:44;98309.34;;;29.55;61.08
14120;BME280;7138;49.246;9.100;2022-08-19T12:41:14;98310.28;;;29.65;60.65
14120;BME280;7138;49.246;9.100;2022-08-19T12:43:42;98313.84;;;29.75;61.78
14120;BME280;7138;49.246;9.100;2022-08-19T12:46:09;98314.13;;;29.72;60.42
14120;BME280;7138;49.246;9.100;2022-08-19T12:48:37;98302.16;;;29.66;60.44
14120;BME280;7138;49.246;9.100;2022-08-19T12:51:10;98310.69;;;29.60;59.99
14120;BME280;7138;49.246;9.100;2022-08-19T12:53:38;98308.38;;;29.35;60.52
14120;BME280;7138;49.246;9.100;2022-08-19T12:56:04;98308.63;;;29.21;60.13
14120;BME280;7138;49.246;9.100;2022-08-19T12:58:31;98311.31;;;29.10;60.53
14120;BME280;7138;49.246;9.100;2022-08-19T13:00:59;98311.97;;;29.02;61.15
14120;BME280;7138;49.246;9.100;2022-08-19T13:03:24;98320.56;;;28.95;59.59
14120;BME280;7138;49.246;9.100;2022-08-19T13:05:54;98304.97;;;28.79;59.66
14120;BME280;7138;49.246;9.100;2022-08-19T13:08:20;98318.78;;;28.84;60.44
14120;BME280;7138;49.246;9.100;2022-08-19T13:10:46;98309.31;;;28.91;60.08
14120;BME280;7138;49.246;9.100;2022-08-19T13:13:12;98307.91;;;28.87;60.21
14120;BME280;7138;49.246;9.100;2022-08-19T13:15:41;98304.97;;;28.90;60.68
14120;BME280;7138;49.246;9.100;2022-08-19T13:18:10;98307.75;;;28.89;60.69